createdAt,value
2017-03-26T00:00:02.271Z,10.02
2017-03-26T00:01:15.701Z,10.03
2017-03-26T00:02:29.367Z,10.02
2017-03-26T00:03:42.765Z,10.02
2017-03-26T00:04:56.377Z,9.99
2017-03-26T00:06:10.455Z,9.98
2017-03-26T00:07:24.035Z,9.98
2017-03-26T00:08:37.492Z,9.99
2017-03-26T00:09:51.420Z,9.99
2017-03-26T00:11:04.834Z,10.01
2017-03-26T00:12:18.478Z,10.01
2017-03-26T00:13:31.922Z,10.02
2017-03-26T00:14:45.537Z,10.02
2017-03-26T00:15:59.001Z,10
2017-03-26T00:17:12.638Z,10
2017-03-26T00:18:26.067Z,10.01
2017-03-26T00:19:39.656Z,10.02
2017-03-26T00:20:53.612Z,10
2017-03-26T00:22:07.491Z,10.03
2017-03-26T00:23:21.300Z,10.03
2017-03-26T00:24:35.056Z,10.03
2017-03-26T00:25:48.812Z,10.05
2017-03-26T00:27:02.355Z,10.04
2017-03-26T00:28:15.814Z,10.08
2017-03-26T00:29:29.461Z,10.09
2017-03-26T00:30:42.876Z,10.08
2017-03-26T00:31:56.388Z,10.04
2017-03-26T00:33:09.767Z,10.02
2017-03-26T00:34:23.279Z,10.01
2017-03-26T00:35:36.654Z,10
2017-03-26T00:36:50.663Z,10.01
2017-03-26T00:38:04.263Z,10.03
2017-03-26T00:39:17.741Z,10.02
2017-03-26T00:40:31.674Z,10
2017-03-26T00:41:45.315Z,9.98
2017-03-26T00:42:59.042Z,9.97
2017-03-26T00:44:12.709Z,9.97
2017-03-26T00:45:26.173Z,9.95
2017-03-26T00:46:40.278Z,9.94
2017-03-26T00:47:53.721Z,9.94
2017-03-26T00:49:07.332Z,9.97
2017-03-26T00:50:21.396Z,9.98
2017-03-26T00:51:35.286Z,9.99
2017-03-26T00:52:48.940Z,9.99
2017-03-26T00:54:02.471Z,10.01
2017-03-26T00:55:15.879Z,10.02
2017-03-26T00:56:29.629Z,10.02
2017-03-26T00:57:43.753Z,10.04
2017-03-26T00:58:57.365Z,10.06
2017-03-26T01:00:11.085Z,10.07
2017-03-26T01:01:26.895Z,10.04
2017-03-26T01:02:40.419Z,10.01
2017-03-26T01:03:54.041Z,10.01
2017-03-26T01:05:08.237Z,10
2017-03-26T01:06:22.125Z,10.01
2017-03-26T01:07:35.489Z,10.02
2017-03-26T01:08:49.215Z,10.03
2017-03-26T01:10:02.873Z,10.04
2017-03-26T01:11:16.427Z,10.08
2017-03-26T01:12:29.843Z,10.1
2017-03-26T01:13:44.293Z,10.12
2017-03-26T01:14:57.706Z,10.16
2017-03-26T01:16:11.690Z,10.15
2017-03-26T01:17:25.732Z,10.15
2017-03-26T01:18:39.296Z,10.15
2017-03-26T01:19:53.135Z,10.16
2017-03-26T01:21:06.987Z,10.15
2017-03-26T01:22:21.065Z,10.14
2017-03-26T01:23:34.881Z,10.11
2017-03-26T01:24:48.462Z,10.1
2017-03-26T01:26:02.039Z,10.08
2017-03-26T01:27:15.532Z,10.05
2017-03-26T01:28:29.351Z,10.07
2017-03-26T01:29:43.781Z,10.06
2017-03-26T01:30:57.831Z,10.08
2017-03-26T01:32:11.261Z,10.05
2017-03-26T01:33:25.293Z,10.02
2017-03-26T01:34:38.865Z,10.01
2017-03-26T01:35:52.433Z,10
2017-03-26T01:37:06.487Z,10.01
2017-03-26T01:38:20.299Z,10
2017-03-26T01:39:34.104Z,9.99
2017-03-26T01:40:47.743Z,9.99
2017-03-26T01:42:01.803Z,9.98
2017-03-26T01:43:15.353Z,9.95
2017-03-26T01:44:28.977Z,9.9
2017-03-26T01:45:42.546Z,9.89
2017-03-26T01:46:55.938Z,9.85
2017-03-26T01:48:10.465Z,9.81
2017-03-26T01:49:23.869Z,9.77
2017-03-26T01:50:37.529Z,9.74
2017-03-26T01:51:51.174Z,9.72
2017-03-26T01:53:04.777Z,9.71
2017-03-26T01:54:18.270Z,9.68
2017-03-26T01:55:41.950Z,9.66
2017-03-26T01:56:55.368Z,9.66
2017-03-26T01:58:09.016Z,9.67
2017-03-26T01:59:22.415Z,9.67
2017-03-26T02:00:50.819Z,9.66
2017-03-26T02:02:05.297Z,9.64
2017-03-26T02:03:20.138Z,9.62
2017-03-26T02:04:34.967Z,9.6
2017-03-26T02:05:48.725Z,9.6
2017-03-26T02:07:02.234Z,9.6
2017-03-26T02:08:16.287Z,9.59
2017-03-26T02:09:29.918Z,9.57
2017-03-26T02:10:43.317Z,9.56
2017-03-26T02:11:57.600Z,9.54
2017-03-26T02:13:11.383Z,9.53
2017-03-26T02:14:24.878Z,9.54
2017-03-26T02:15:39.268Z,9.51
2017-03-26T02:16:53.539Z,9.5
2017-03-26T02:18:09.382Z,9.51
2017-03-26T02:19:23.171Z,9.5
2017-03-26T02:20:36.638Z,9.49
2017-03-26T02:21:50.170Z,9.48
2017-03-26T02:23:03.821Z,9.46
2017-03-26T02:24:17.378Z,9.46
2017-03-26T02:25:31.804Z,9.44
2017-03-26T02:26:45.698Z,9.43
2017-03-26T02:27:59.589Z,9.43
2017-03-26T02:29:13.456Z,9.43
2017-03-26T02:30:26.803Z,9.44
2017-03-26T02:31:40.625Z,9.45
2017-03-26T02:32:54.213Z,9.45
2017-03-26T02:34:07.786Z,9.44
2017-03-26T02:35:21.243Z,9.44
2017-03-26T02:36:34.868Z,9.44
2017-03-26T02:37:48.709Z,9.42
2017-03-26T02:39:02.481Z,9.4
2017-03-26T02:40:16.578Z,9.39
2017-03-26T02:41:30.072Z,9.34
2017-03-26T02:42:43.530Z,9.33
2017-03-26T02:43:57.712Z,9.3
2017-03-26T02:45:11.272Z,9.28
2017-03-26T02:46:24.926Z,9.25
2017-03-26T02:47:38.352Z,9.21
2017-03-26T02:48:52.292Z,9.18
2017-03-26T02:50:05.955Z,9.15
2017-03-26T02:51:19.404Z,9.15
2017-03-26T02:52:32.848Z,9.14
2017-03-26T02:53:46.620Z,9.13
2017-03-26T02:55:00.042Z,9.13
2017-03-26T02:56:13.866Z,9.15
2017-03-26T02:57:27.541Z,9.13
2017-03-26T02:58:41.209Z,9.14
2017-03-26T02:59:54.678Z,9.14
2017-03-26T03:01:08.427Z,9.13
2017-03-26T03:02:22.139Z,9.15
2017-03-26T03:03:35.689Z,9.16
2017-03-26T03:04:50.042Z,9.15
2017-03-26T03:06:03.813Z,9.15
2017-03-26T03:07:17.515Z,9.16
2017-03-26T03:08:31.293Z,9.16
2017-03-26T03:09:44.818Z,9.17
2017-03-26T03:10:58.356Z,9.2
2017-03-26T03:12:12.278Z,9.23
2017-03-26T03:13:25.787Z,9.24
2017-03-26T03:14:39.960Z,9.25
2017-03-26T03:15:53.625Z,9.23
2017-03-26T03:17:07.590Z,9.22
2017-03-26T03:18:21.712Z,9.21
2017-03-26T03:19:35.120Z,9.2
2017-03-26T03:20:49.673Z,9.2
2017-03-26T03:22:04.100Z,9.18
2017-03-26T03:23:17.720Z,9.18
2017-03-26T03:24:31.154Z,9.17
2017-03-26T03:25:44.744Z,9.15
2017-03-26T03:26:58.829Z,9.11
2017-03-26T03:28:12.623Z,9.11
2017-03-26T03:29:26.144Z,9.12
2017-03-26T03:30:40.134Z,9.11
2017-03-26T03:31:53.587Z,9.09
2017-03-26T03:33:07.607Z,9.08
2017-03-26T03:34:23.824Z,9.06
2017-03-26T03:35:37.648Z,8.99
2017-03-26T03:36:51.107Z,8.94
2017-03-26T03:38:04.937Z,8.88
2017-03-26T03:39:18.636Z,8.85
2017-03-26T03:40:32.188Z,8.82
2017-03-26T03:41:45.820Z,8.81
2017-03-26T03:42:59.363Z,8.8
2017-03-26T03:44:13.050Z,8.78
2017-03-26T03:45:27.846Z,8.76
2017-03-26T03:46:41.958Z,8.74
2017-03-26T03:47:55.572Z,8.71
2017-03-26T03:49:09.086Z,8.68
2017-03-26T03:50:22.546Z,8.67
2017-03-26T03:51:36.183Z,8.67
2017-03-26T03:52:49.801Z,8.64
2017-03-26T03:54:03.568Z,8.64
2017-03-26T03:55:17.297Z,8.61
2017-03-26T03:56:30.708Z,8.62
2017-03-26T03:57:44.587Z,8.61
2017-03-26T03:58:58.243Z,8.59
2017-03-26T04:00:11.842Z,8.6
2017-03-26T04:01:25.233Z,8.6
2017-03-26T04:02:38.751Z,8.58
2017-03-26T04:03:52.799Z,8.55
2017-03-26T04:05:06.513Z,8.53
2017-03-26T04:06:21.611Z,8.52
2017-03-26T04:07:35.178Z,8.49
2017-03-26T04:08:48.556Z,8.47
2017-03-26T04:10:03.346Z,8.47
2017-03-26T04:11:16.778Z,8.45
2017-03-26T04:12:30.601Z,8.44
2017-03-26T04:13:44.051Z,8.44
2017-03-26T04:14:57.556Z,8.42
2017-03-26T04:16:11.570Z,8.41
2017-03-26T04:17:25.100Z,8.39
2017-03-26T04:18:38.548Z,8.37
2017-03-26T04:19:52.473Z,8.37
2017-03-26T04:21:06.216Z,8.36
2017-03-26T04:22:20.285Z,8.36
2017-03-26T04:23:33.932Z,8.34
2017-03-26T04:24:47.515Z,8.31
2017-03-26T04:26:00.971Z,8.31
2017-03-26T04:27:14.564Z,8.3
2017-03-26T04:28:28.496Z,8.3
2017-03-26T04:29:42.672Z,8.3
2017-03-26T04:30:56.158Z,8.29
2017-03-26T04:32:09.852Z,8.26
2017-03-26T04:33:23.461Z,8.24
2017-03-26T04:34:37.297Z,8.22
2017-03-26T04:35:50.887Z,8.2
2017-03-26T04:37:04.354Z,8.19
2017-03-26T04:38:18.012Z,8.18
2017-03-26T04:39:31.612Z,8.14
2017-03-26T04:40:45.336Z,8.13
2017-03-26T04:41:59.706Z,8.11
2017-03-26T04:43:13.801Z,8.12
2017-03-26T04:44:27.395Z,8.1
2017-03-26T04:45:40.838Z,8.11
2017-03-26T04:46:55.207Z,8.13
2017-03-26T04:48:08.834Z,8.14
2017-03-26T04:49:22.530Z,8.16
2017-03-26T04:50:38.112Z,8.17
2017-03-26T04:51:51.682Z,8.16
2017-03-26T04:53:05.585Z,8.17
2017-03-26T04:54:19.066Z,8.18
2017-03-26T04:55:32.731Z,8.18
2017-03-26T04:56:46.265Z,8.17
2017-03-26T04:57:59.826Z,8.16
2017-03-26T04:59:14.295Z,8.18
2017-03-26T05:00:28.300Z,8.19
2017-03-26T05:01:41.897Z,8.19
2017-03-26T05:02:55.288Z,8.18
2017-03-26T05:04:09.466Z,8.18
2017-03-26T05:05:24.309Z,8.17
2017-03-26T05:06:37.837Z,8.17
2017-03-26T05:07:51.531Z,8.18
2017-03-26T05:09:05.300Z,8.17
2017-03-26T05:10:19.036Z,8.15
2017-03-26T05:11:33.324Z,8.15
2017-03-26T05:12:46.754Z,8.14
2017-03-26T05:14:00.293Z,8.13
2017-03-26T05:15:14.571Z,8.13
2017-03-26T05:16:28.144Z,8.12
2017-03-26T05:17:42.482Z,8.14
2017-03-26T05:18:56.096Z,8.16
2017-03-26T05:20:09.837Z,8.18
2017-03-26T05:21:23.306Z,8.22
2017-03-26T05:22:36.830Z,8.26
2017-03-26T05:23:51.267Z,8.32
2017-03-26T05:25:04.602Z,8.37
2017-03-26T05:26:18.020Z,8.42
2017-03-26T05:27:32.091Z,8.46
2017-03-26T05:28:45.770Z,8.5
2017-03-26T05:29:59.980Z,8.53
2017-03-26T05:31:13.445Z,8.58
2017-03-26T05:32:26.903Z,8.6
2017-03-26T05:33:40.825Z,8.63
2017-03-26T05:34:54.269Z,8.65
2017-03-26T05:36:08.124Z,8.67
2017-03-26T05:37:21.656Z,8.69
2017-03-26T05:38:52.295Z,8.7
2017-03-26T05:40:06.386Z,8.71
2017-03-26T05:41:21.450Z,8.71
2017-03-26T05:42:34.798Z,8.76
2017-03-26T05:43:49.210Z,8.77
2017-03-26T05:45:02.556Z,8.79
2017-03-26T05:46:16.769Z,8.79
2017-03-26T05:47:30.487Z,8.79
2017-03-26T05:48:44.013Z,8.78
2017-03-26T05:49:57.617Z,8.8
2017-03-26T05:51:11.979Z,8.8
2017-03-26T05:52:26.702Z,8.81
2017-03-26T05:53:40.434Z,8.83
2017-03-26T05:54:53.910Z,8.85
2017-03-26T05:56:16.601Z,8.89
2017-03-26T05:57:30.008Z,8.93
2017-03-26T05:58:43.534Z,8.98
2017-03-26T05:59:57.053Z,9.03
2017-03-26T06:01:30.866Z,9.1
2017-03-26T06:02:44.642Z,9.2
2017-03-26T06:03:58.249Z,9.25
2017-03-26T06:05:12.194Z,9.3
2017-03-26T06:06:25.605Z,9.37
2017-03-26T06:07:41.267Z,9.38
2017-03-26T06:08:55.381Z,9.39
2017-03-26T06:10:09.023Z,9.42
2017-03-26T06:11:22.736Z,9.45
2017-03-26T06:12:36.474Z,9.49
2017-03-26T06:13:49.962Z,9.52
2017-03-26T06:15:03.812Z,9.57
2017-03-26T06:16:17.759Z,9.6
2017-03-26T06:17:31.494Z,9.66
2017-03-26T06:18:45.078Z,9.74
2017-03-26T06:19:58.897Z,9.8
2017-03-26T06:21:12.427Z,9.86
2017-03-26T06:22:26.308Z,9.92
2017-03-26T06:23:40.311Z,9.97
2017-03-26T06:24:54.437Z,10.01
2017-03-26T06:26:08.457Z,10.05
2017-03-26T06:27:22.586Z,10.11
2017-03-26T06:28:35.960Z,10.13
2017-03-26T06:29:49.715Z,10.15
2017-03-26T06:31:03.154Z,10.15
2017-03-26T06:32:16.751Z,10.15
2017-03-26T06:33:30.347Z,10.17
2017-03-26T06:34:44.156Z,10.2
2017-03-26T06:35:57.973Z,10.23
2017-03-26T06:37:11.693Z,10.24
2017-03-26T06:38:25.122Z,10.26
2017-03-26T06:39:38.761Z,10.26
2017-03-26T06:40:52.421Z,10.3
2017-03-26T06:42:05.953Z,10.36
2017-03-26T06:43:19.490Z,10.42
2017-03-26T06:44:34.492Z,10.47
2017-03-26T06:45:47.962Z,10.47
2017-03-26T06:47:01.582Z,10.51
2017-03-26T06:48:15.147Z,10.55
2017-03-26T06:49:28.784Z,10.58
2017-03-26T06:50:42.211Z,10.62
2017-03-26T06:51:56.048Z,10.63
2017-03-26T06:53:09.840Z,10.63
2017-03-26T06:54:23.449Z,10.65
2017-03-26T06:55:36.929Z,10.69
2017-03-26T06:56:50.915Z,10.74
2017-03-26T06:58:04.281Z,10.78
2017-03-26T06:59:18.302Z,10.84
2017-03-26T07:00:31.912Z,10.9
2017-03-26T07:01:46.327Z,10.93
2017-03-26T07:02:59.950Z,10.98
2017-03-26T07:04:14.073Z,11
2017-03-26T07:05:27.849Z,11.04
2017-03-26T07:06:42.441Z,11.1
2017-03-26T07:07:55.817Z,11.09
2017-03-26T07:09:09.620Z,11.08
2017-03-26T07:10:23.387Z,11.05
2017-03-26T07:11:37.334Z,11.06
2017-03-26T07:12:50.746Z,11.08
2017-03-26T07:14:04.591Z,11.11
2017-03-26T07:15:18.176Z,11.12
2017-03-26T07:16:32.145Z,11.12
2017-03-26T07:17:46.714Z,11.12
2017-03-26T07:19:00.626Z,11.12
2017-03-26T07:20:14.428Z,11.13
2017-03-26T07:21:28.206Z,11.12
2017-03-26T07:22:42.385Z,11.1
2017-03-26T07:23:58.465Z,11.08
2017-03-26T07:25:11.899Z,11.03
2017-03-26T07:26:25.963Z,10.98
2017-03-26T07:27:41.230Z,10.94
2017-03-26T07:29:00.961Z,10.89
2017-03-26T07:30:14.447Z,10.86
2017-03-26T07:31:28.141Z,10.86
2017-03-26T07:32:42.066Z,10.87
2017-03-26T07:33:55.517Z,10.86
2017-03-26T07:35:09.106Z,10.84
2017-03-26T07:36:22.761Z,10.84
2017-03-26T07:37:36.136Z,10.81
2017-03-26T07:38:50.176Z,10.83
2017-03-26T07:40:03.833Z,10.85
2017-03-26T07:41:17.435Z,10.87
2017-03-26T07:42:31.023Z,10.89
2017-03-26T07:43:45.699Z,10.91
2017-03-26T07:44:59.673Z,10.92
2017-03-26T07:46:14.884Z,10.92
2017-03-26T07:47:41.336Z,10.93
2017-03-26T07:48:55.999Z,10.98
2017-03-26T07:50:09.650Z,10.99
2017-03-26T07:51:24.389Z,10.94
2017-03-26T07:52:38.400Z,10.91
2017-03-26T07:53:53.288Z,10.89
2017-03-26T07:55:09.092Z,10.9
2017-03-26T07:56:26.130Z,10.93
2017-03-26T07:57:40.684Z,10.96
2017-03-26T07:58:54.868Z,10.95
2017-03-26T08:00:08.858Z,10.96
2017-03-26T08:01:22.873Z,10.97
2017-03-26T08:02:37.596Z,11
2017-03-26T08:03:52.330Z,11.02
2017-03-26T08:05:07.473Z,11.07
2017-03-26T08:06:21.949Z,11.1
2017-03-26T08:07:37.367Z,11.13
2017-03-26T08:08:51.888Z,11.19
2017-03-26T08:10:06.167Z,11.23
2017-03-26T08:11:20.473Z,11.26
2017-03-26T08:12:34.009Z,11.3
2017-03-26T08:13:47.699Z,11.36
2017-03-26T08:15:01.203Z,11.42
2017-03-26T08:16:15.571Z,11.43
2017-03-26T08:17:30.473Z,11.46
2017-03-26T08:18:46.915Z,11.51
2017-03-26T08:20:04.109Z,11.58
2017-03-26T08:21:18.844Z,11.62
2017-03-26T08:22:32.714Z,11.65
2017-03-26T08:23:46.384Z,11.73
2017-03-26T08:25:00.076Z,11.79
2017-03-26T08:26:14.235Z,11.85
2017-03-26T08:27:29.154Z,11.9
2017-03-26T08:28:43.615Z,11.93
2017-03-26T08:29:57.436Z,11.96
2017-03-26T08:31:10.874Z,11.99
2017-03-26T08:32:24.319Z,12.01
2017-03-26T08:33:39.859Z,12.03
2017-03-26T08:34:56.891Z,12.06
2017-03-26T08:36:11.545Z,12.05
2017-03-26T08:37:25.301Z,12.03
2017-03-26T08:38:39.141Z,12.03
2017-03-26T08:39:54.150Z,12
2017-03-26T08:41:10.603Z,11.99
2017-03-26T08:42:24.558Z,11.97
2017-03-26T08:43:38.408Z,11.97
2017-03-26T08:44:52.319Z,11.97
2017-03-26T08:46:07.921Z,11.98
2017-03-26T08:47:22.356Z,12.02
2017-03-26T08:48:39.982Z,12.07
2017-03-26T08:49:55.285Z,12.05
2017-03-26T08:51:09.926Z,12.05
2017-03-26T08:52:24.936Z,12.03
2017-03-26T08:53:39.655Z,12
2017-03-26T08:54:56.352Z,12
2017-03-26T08:56:11.652Z,12.01
2017-03-26T08:57:25.687Z,12.02
2017-03-26T08:58:39.374Z,12.01
2017-03-26T08:59:54.052Z,12.02
2017-03-26T09:01:08.139Z,12.03
2017-03-26T09:02:22.345Z,12.09
2017-03-26T09:03:36.342Z,12.11
2017-03-26T09:04:49.990Z,12.17
2017-03-26T09:06:04.144Z,12.24
2017-03-26T09:07:17.938Z,12.31
2017-03-26T09:08:31.615Z,12.35
2017-03-26T09:09:45.188Z,12.41
2017-03-26T09:10:59.057Z,12.45
2017-03-26T09:12:13.386Z,12.5
2017-03-26T09:13:29.361Z,12.49
2017-03-26T09:14:44.397Z,12.5
2017-03-26T09:15:58.151Z,12.48
2017-03-26T09:17:11.547Z,12.46
2017-03-26T09:18:25.308Z,12.48
2017-03-26T09:19:38.868Z,12.47
2017-03-26T09:20:52.443Z,12.46
2017-03-26T09:22:31.602Z,12.44
2017-03-26T09:23:45.290Z,12.44
2017-03-26T09:24:59.024Z,12.44
2017-03-26T09:26:12.972Z,12.46
2017-03-26T09:27:26.492Z,12.5
2017-03-26T09:28:40.156Z,12.57
2017-03-26T09:29:54.781Z,12.64
2017-03-26T09:31:08.415Z,12.73
2017-03-26T09:32:24.275Z,12.82
2017-03-26T09:33:40.144Z,12.91
2017-03-26T09:34:53.803Z,12.97
2017-03-26T09:36:07.260Z,12.99
2017-03-26T09:37:20.898Z,12.96
2017-03-26T09:38:34.527Z,12.89
2017-03-26T09:39:48.296Z,12.84
2017-03-26T09:41:01.942Z,12.88
2017-03-26T09:42:15.584Z,12.95
2017-03-26T09:43:29.557Z,13.01
2017-03-26T09:44:44.227Z,13.07
2017-03-26T09:46:00.945Z,13.09
2017-03-26T09:47:14.486Z,13.1
2017-03-26T09:48:28.226Z,13.17
2017-03-26T09:49:42.274Z,13.24
2017-03-26T09:50:56.470Z,13.31
2017-03-26T09:52:10.194Z,13.39
2017-03-26T09:53:23.902Z,13.46
2017-03-26T09:54:38.007Z,13.52
2017-03-26T09:55:51.805Z,13.55
2017-03-26T09:57:05.444Z,13.52
2017-03-26T09:58:21.985Z,13.53
2017-03-26T09:59:35.613Z,13.54
2017-03-26T10:00:50.437Z,13.56
2017-03-26T10:02:04.823Z,13.51
2017-03-26T10:03:18.678Z,13.5
2017-03-26T10:04:32.196Z,13.52
2017-03-26T10:05:46.066Z,13.56
2017-03-26T10:06:59.484Z,13.64
2017-03-26T10:08:12.945Z,13.69
2017-03-26T10:09:26.571Z,13.77
2017-03-26T10:10:40.036Z,13.81
2017-03-26T10:11:53.397Z,13.85
2017-03-26T10:13:06.989Z,13.89
2017-03-26T10:14:20.676Z,13.95
2017-03-26T10:15:34.171Z,13.98
2017-03-26T10:16:47.593Z,14
2017-03-26T10:18:01.087Z,13.99
2017-03-26T10:19:14.766Z,13.94
2017-03-26T10:20:28.208Z,13.85
2017-03-26T10:21:41.670Z,13.75
2017-03-26T10:22:55.233Z,13.74
2017-03-26T10:24:09.134Z,13.77
2017-03-26T10:25:25.514Z,13.85
2017-03-26T10:26:44.817Z,13.95
2017-03-26T10:28:18.160Z,14.03
2017-03-26T10:29:36.108Z,14.07
2017-03-26T10:30:49.985Z,14.08
2017-03-26T10:32:03.731Z,14.11
2017-03-26T10:33:17.381Z,14.1
2017-03-26T10:34:32.219Z,14.13
2017-03-26T10:35:46.046Z,14.18
2017-03-26T10:36:59.693Z,14.23
2017-03-26T10:38:13.738Z,14.3
2017-03-26T10:39:27.217Z,14.29
2017-03-26T10:40:40.895Z,14.28
2017-03-26T10:41:56.220Z,14.29
2017-03-26T10:43:33.714Z,14.28
2017-03-26T10:44:47.342Z,14.28
2017-03-26T10:46:01.376Z,14.31
2017-03-26T10:47:15.070Z,14.35
2017-03-26T10:48:28.475Z,14.39
2017-03-26T10:49:41.982Z,14.42
2017-03-26T10:50:55.383Z,14.4
2017-03-26T10:52:09.436Z,14.36
2017-03-26T10:53:23.025Z,14.32
2017-03-26T10:54:36.646Z,14.32
2017-03-26T10:55:50.819Z,14.35
2017-03-26T10:57:04.470Z,14.4
2017-03-26T10:58:18.576Z,14.42
2017-03-26T10:59:32.656Z,14.42
2017-03-26T11:00:47.755Z,14.45
2017-03-26T11:02:01.796Z,14.52
2017-03-26T11:03:15.257Z,14.58
2017-03-26T11:04:29.702Z,14.64
2017-03-26T11:05:43.193Z,14.64
2017-03-26T11:06:56.912Z,14.64
2017-03-26T11:08:10.549Z,14.64
2017-03-26T11:09:24.592Z,14.64
2017-03-26T11:10:38.846Z,14.66
2017-03-26T11:11:53.027Z,14.64
2017-03-26T11:13:06.676Z,14.67
2017-03-26T11:14:21.015Z,14.68
2017-03-26T11:15:36.578Z,14.7
2017-03-26T11:16:50.494Z,14.74
2017-03-26T11:18:04.536Z,14.78
2017-03-26T11:19:18.423Z,14.79
2017-03-26T11:20:31.893Z,14.8
2017-03-26T11:21:46.051Z,14.81
2017-03-26T11:22:59.838Z,14.82
2017-03-26T11:24:13.369Z,14.85
2017-03-26T11:25:27.036Z,14.86
2017-03-26T11:26:40.604Z,14.91
2017-03-26T11:27:54.404Z,14.93
2017-03-26T11:29:08.165Z,14.94
2017-03-26T11:30:21.514Z,14.95
2017-03-26T11:31:34.933Z,14.96
2017-03-26T11:32:48.539Z,14.97
2017-03-26T11:34:02.093Z,14.96
2017-03-26T11:35:16.350Z,14.93
2017-03-26T11:36:29.844Z,14.91
2017-03-26T11:37:43.160Z,14.87
2017-03-26T11:38:56.768Z,14.87
2017-03-26T11:40:10.404Z,14.92
2017-03-26T11:41:24.353Z,14.98
2017-03-26T11:42:38.281Z,15.07
2017-03-26T11:43:51.933Z,15.16
2017-03-26T11:45:05.617Z,15.23
2017-03-26T11:46:19.146Z,15.31
2017-03-26T11:47:33.933Z,15.38
2017-03-26T11:48:47.728Z,15.44
2017-03-26T11:50:01.177Z,15.51
2017-03-26T11:51:14.949Z,15.52
2017-03-26T11:52:28.270Z,15.55
2017-03-26T11:53:42.009Z,15.56
2017-03-26T11:54:55.369Z,15.54
2017-03-26T11:56:08.842Z,15.49
2017-03-26T11:57:22.532Z,15.41
2017-03-26T11:58:35.986Z,15.41
2017-03-26T11:59:49.709Z,15.43
2017-03-26T12:01:03.533Z,15.49
2017-03-26T12:02:17.006Z,15.54
2017-03-26T12:03:30.895Z,15.58
2017-03-26T12:04:44.708Z,15.6
2017-03-26T12:05:58.919Z,15.62
2017-03-26T12:07:12.645Z,15.66
2017-03-26T12:08:26.473Z,15.7
2017-03-26T12:09:39.982Z,15.7
2017-03-26T12:10:53.556Z,15.69
2017-03-26T12:12:07.261Z,15.72
2017-03-26T12:13:21.999Z,15.75
2017-03-26T12:14:36.055Z,15.78
2017-03-26T12:15:49.915Z,15.8
2017-03-26T12:17:03.752Z,15.8
2017-03-26T12:18:17.868Z,15.8
2017-03-26T12:19:31.502Z,15.79
2017-03-26T12:20:45.372Z,15.75
2017-03-26T12:21:58.828Z,15.74
2017-03-26T12:23:12.667Z,15.77
2017-03-26T12:24:26.391Z,15.82
2017-03-26T12:25:39.886Z,15.88
2017-03-26T12:26:53.787Z,15.95
2017-03-26T12:29:13.871Z,16.03
2017-03-26T12:30:32.789Z,16.14
2017-03-26T12:31:46.334Z,16.17
2017-03-26T12:33:02.072Z,16.19
2017-03-26T12:34:15.870Z,16.2
2017-03-26T12:35:29.569Z,16.16
2017-03-26T12:36:43.181Z,16.14
2017-03-26T12:37:56.736Z,16.12
2017-03-26T12:39:10.154Z,16.13
2017-03-26T12:40:23.611Z,16.15
2017-03-26T12:41:37.138Z,16.17
2017-03-26T12:42:50.942Z,16.21
2017-03-26T12:44:04.367Z,16.27
2017-03-26T12:45:18.119Z,16.34
2017-03-26T12:46:31.753Z,16.41
2017-03-26T12:47:45.347Z,16.46
2017-03-26T12:48:59.342Z,16.52
2017-03-26T12:50:13.190Z,16.56
2017-03-26T12:51:26.677Z,16.61
2017-03-26T12:52:40.129Z,16.66
2017-03-26T12:53:54.129Z,16.69
2017-03-26T12:55:07.859Z,16.66
2017-03-26T12:56:21.248Z,16.61
2017-03-26T12:57:35.169Z,16.57
2017-03-26T12:58:48.610Z,16.53
2017-03-26T13:00:16.867Z,16.53
2017-03-26T13:01:31.040Z,16.47
2017-03-26T13:02:44.619Z,16.49
2017-03-26T13:03:58.011Z,16.53
2017-03-26T13:05:11.943Z,16.58
2017-03-26T13:06:25.273Z,16.65
2017-03-26T13:07:39.610Z,16.73
2017-03-26T13:08:53.555Z,16.79
2017-03-26T13:10:07.115Z,16.86
2017-03-26T13:11:20.496Z,16.89
2017-03-26T13:12:33.956Z,16.91
2017-03-26T13:13:47.295Z,16.89
2017-03-26T13:15:01.185Z,16.87
2017-03-26T13:16:16.548Z,16.87
2017-03-26T13:17:30.364Z,16.82
2017-03-26T13:18:44.431Z,16.79
2017-03-26T13:19:58.401Z,16.8
2017-03-26T13:21:11.831Z,16.83
2017-03-26T13:22:25.468Z,16.85
2017-03-26T13:23:38.862Z,16.84
2017-03-26T13:24:53.230Z,16.86
2017-03-26T13:26:07.557Z,16.89
2017-03-26T13:27:21.027Z,16.93
2017-03-26T13:28:34.715Z,16.93
2017-03-26T13:29:48.224Z,16.92
2017-03-26T13:31:01.643Z,16.88
2017-03-26T13:32:15.304Z,16.84
2017-03-26T13:33:29.232Z,16.84
2017-03-26T13:34:43.630Z,16.89
2017-03-26T13:35:57.749Z,16.93
2017-03-26T13:37:11.231Z,16.99
2017-03-26T13:38:24.681Z,16.99
2017-03-26T13:39:38.241Z,17.01
2017-03-26T13:40:52.510Z,17.04
2017-03-26T13:42:06.648Z,17.08
2017-03-26T13:43:20.040Z,17.13
2017-03-26T13:44:34.804Z,17.16
2017-03-26T13:45:48.207Z,17.19
2017-03-26T13:47:01.728Z,17.2
2017-03-26T13:48:15.239Z,17.12
2017-03-26T13:49:31.321Z,17.05
2017-03-26T13:50:44.743Z,17.03
2017-03-26T13:51:58.911Z,17.02
2017-03-26T13:53:12.613Z,17.05
2017-03-26T13:54:26.215Z,17.05
2017-03-26T13:55:40.244Z,17.04
2017-03-26T13:56:54.054Z,17.02
2017-03-26T13:58:07.438Z,17.05
2017-03-26T13:59:21.256Z,17.09
2017-03-26T14:00:34.947Z,17.09
2017-03-26T14:01:48.425Z,17.09
2017-03-26T14:03:02.023Z,17.09
2017-03-26T14:04:15.745Z,17.08
2017-03-26T14:05:29.168Z,17.1
2017-03-26T14:06:43.001Z,17.13
2017-03-26T14:07:56.757Z,17.16
2017-03-26T14:09:10.385Z,17.19
2017-03-26T14:10:24.020Z,17.25
2017-03-26T14:11:37.526Z,17.29
2017-03-26T14:12:51.369Z,17.33
2017-03-26T14:14:04.977Z,17.36
2017-03-26T14:15:18.461Z,17.38
2017-03-26T14:16:31.968Z,17.39
2017-03-26T14:17:46.524Z,17.4
2017-03-26T14:19:00.678Z,17.42
2017-03-26T14:20:15.290Z,17.47
2017-03-26T14:21:28.912Z,17.49
2017-03-26T14:22:43.557Z,17.49
2017-03-26T14:23:58.309Z,17.47
2017-03-26T14:25:12.827Z,17.45
2017-03-26T14:26:26.923Z,17.43
2017-03-26T14:27:40.684Z,17.45
2017-03-26T14:28:55.639Z,17.48
2017-03-26T14:30:09.737Z,17.48
2017-03-26T14:31:24.246Z,17.45
2017-03-26T14:32:38.169Z,17.41
2017-03-26T14:33:52.016Z,17.37
2017-03-26T14:35:05.943Z,17.31
2017-03-26T14:36:19.725Z,17.28
2017-03-26T14:37:33.094Z,17.24
2017-03-26T14:38:46.659Z,17.19
2017-03-26T14:40:00.905Z,17.2
2017-03-26T14:41:15.001Z,17.21
2017-03-26T14:42:28.350Z,17.22
2017-03-26T14:43:42.339Z,17.23
2017-03-26T14:44:56.903Z,17.24
2017-03-26T14:46:10.588Z,17.22
2017-03-26T14:47:24.511Z,17.24
2017-03-26T14:48:38.062Z,17.26
2017-03-26T14:49:52.608Z,17.26
2017-03-26T14:51:06.210Z,17.26
2017-03-26T14:52:20.168Z,17.29
2017-03-26T14:53:33.859Z,17.33
2017-03-26T14:54:47.350Z,17.35
2017-03-26T14:56:01.403Z,17.4
2017-03-26T14:57:14.796Z,17.46
2017-03-26T14:58:28.836Z,17.52
2017-03-26T14:59:42.219Z,17.56
2017-03-26T15:00:55.699Z,17.6
2017-03-26T15:02:09.156Z,17.57
2017-03-26T15:03:22.929Z,17.57
2017-03-26T15:04:36.851Z,17.6
2017-03-26T15:05:52.907Z,17.64
2017-03-26T15:07:06.243Z,17.69
2017-03-26T15:08:19.690Z,17.74
2017-03-26T15:09:33.390Z,17.76
2017-03-26T15:10:46.917Z,17.8
2017-03-26T15:12:00.528Z,17.82
2017-03-26T15:13:14.269Z,17.82
2017-03-26T15:14:28.229Z,17.83
2017-03-26T15:16:17.114Z,17.85
2017-03-26T15:18:00.891Z,17.85
2017-03-26T15:19:14.696Z,17.8
2017-03-26T15:20:28.035Z,17.78
2017-03-26T15:21:41.990Z,17.76
2017-03-26T15:22:55.385Z,17.71
2017-03-26T15:24:08.861Z,17.7
2017-03-26T15:25:22.916Z,17.71
2017-03-26T15:26:36.973Z,17.77
2017-03-26T15:27:50.687Z,17.81
2017-03-26T15:29:04.637Z,17.82
2017-03-26T15:30:18.963Z,17.85
2017-03-26T15:31:32.819Z,17.85
2017-03-26T15:32:46.543Z,17.86
2017-03-26T15:34:00.065Z,17.84
2017-03-26T15:35:14.137Z,17.81
2017-03-26T15:36:28.195Z,17.77
2017-03-26T15:37:42.210Z,17.79
2017-03-26T15:38:56.470Z,17.8
2017-03-26T15:40:09.858Z,17.82
2017-03-26T15:41:24.241Z,17.82
2017-03-26T15:42:38.106Z,17.83
2017-03-26T15:43:52.203Z,17.84
2017-03-26T15:45:05.995Z,17.87
2017-03-26T15:46:19.499Z,17.87
2017-03-26T15:47:34.100Z,17.87
2017-03-26T15:48:47.935Z,17.87
2017-03-26T15:50:02.113Z,17.88
2017-03-26T15:51:15.970Z,17.88
2017-03-26T15:52:29.729Z,17.9
2017-03-26T15:53:43.594Z,17.89
2017-03-26T15:54:57.823Z,17.9
2017-03-26T15:56:11.647Z,17.87
2017-03-26T15:57:26.126Z,17.79
2017-03-26T15:58:40.755Z,17.72
2017-03-26T15:59:54.202Z,17.66
2017-03-26T16:01:07.819Z,17.64
2017-03-26T16:02:22.111Z,17.64
2017-03-26T16:03:35.629Z,17.65
2017-03-26T16:04:50.035Z,17.67
2017-03-26T16:06:03.807Z,17.7
2017-03-26T16:07:17.496Z,17.73
2017-03-26T16:08:31.291Z,17.76
2017-03-26T16:09:45.286Z,17.76
2017-03-26T16:13:22.900Z,17.62